Time;durP1;ratioP1;P1;durP2;ratioP2;P2;SDS_P1;SDS_P2;PMS_P1;PMS_P2;Temp;Humidity;BMP_temperature;BMP_pressure;BME280_temperature;BME280_humidity;BME280_pressure;Samples;Min_cycle;Max_cycle;Signal;HPM_P1;HPM_P2
2022/10/24 00:00:41;;;;;;;2.70;2.50;;;13.80;99.90;;;;;;5115616;28;20441;-64
2022/10/24 00:03:08;;;;;;;3.50;2.40;;;13.80;99.90;;;;;;5115862;28;20449;-64
2022/10/24 00:05:36;;;;;;;5.30;2.63;;;13.90;99.90;;;;;;5116002;28;20468;-63
2022/10/24 00:08:04;;;;;;;2.80;2.23;;;13.90;99.90;;;;;;5115655;28;21065;-64
2022/10/24 00:10:31;;;;;;;3.33;2.10;;;13.90;99.90;;;;;;5115982;28;20453;-64
2022/10/24 00:12:57;;;;;;;11.53;3.40;;;13.90;99.90;;;;;;5116122;28;20445;-64
2022/10/24 00:15:24;;;;;;;4.90;2.50;;;13.90;99.90;;;;;;5116016;28;20485;-65
2022/10/24 00:17:51;;;;;;;3.90;2.10;;;13.90;99.90;;;;;;5115259;28;20940;-64
2022/10/24 00:20:18;;;;;;;3.10;2.63;;;14.00;99.90;;;;;;5113732;28;20449;-64
2022/10/24 00:22:46;;;;;;;3.30;2.40;;;14.00;99.90;;;;;;5113748;28;20929;-64
2022/10/24 00:25:12;;;;;;;2.57;2.37;;;14.10;99.90;;;;;;5113892;28;20829;-64
2022/10/24 00:27:39;;;;;;;2.83;2.20;;;14.00;99.90;;;;;;5118207;28;20445;-64
2022/10/24 00:30:07;;;;;;;3.63;2.47;;;14.00;99.90;;;;;;5117839;28;20437;-65
2022/10/24 00:32:34;;;;;;;7.13;2.90;;;14.00;99.90;;;;;;5117901;28;20433;-64
2022/10/24 00:35:01;;;;;;;4.17;2.50;;;13.90;99.90;;;;;;5117618;28;20473;-64
2022/10/24 00:37:27;;;;;;;5.67;2.77;;;13.80;99.90;;;;;;5117699;28;20441;-64
2022/10/24 00:39:55;;;;;;;2.70;2.50;;;13.80;99.90;;;;;;5117356;28;20959;-64
2022/10/24 00:42:23;;;;;;;4.30;3.27;;;13.70;99.90;;;;;;5117870;28;20446;-64
2022/10/24 00:44:52;;;;;;;6.37;2.90;;;13.70;99.90;;;;;;5117541;28;20437;-65
2022/10/24 00:47:21;;;;;;;3.50;2.60;;;13.60;99.90;;;;;;5117522;28;20446;-65
2022/10/24 00:49:52;;;;;;;4.10;3.70;;;13.60;99.90;;;;;;5117598;28;20441;-64
2022/10/24 00:52:24;;;;;;;6.90;4.50;;;13.60;99.90;;;;;;5117409;28;20429;-64
2022/10/24 00:54:53;;;;;;;5.87;4.20;;;13.50;99.90;;;;;;5117199;28;20462;-65
2022/10/24 00:57:27;;;;;;;3.80;3.37;;;13.50;99.90;;;;;;5117902;28;20757;-64
2022/10/24 00:59:57;;;;;;;3.83;3.00;;;13.50;99.90;;;;;;5116955;28;20433;-64
2022/10/24 01:02:24;;;;;;;6.80;3.40;;;13.50;99.90;;;;;;5117288;28;20430;-64
2022/10/24 01:04:53;;;;;;;7.47;3.43;;;13.50;99.90;;;;;;5117820;28;20437;-64
2022/10/24 01:07:33;;;;;;;5.33;3.57;;;13.50;99.90;;;;;;5117212;28;20794;-64
2022/10/24 01:10:22;;;;;;;4.27;3.03;;;13.50;99.90;;;;;;5117308;28;20425;-64
2022/10/24 01:12:58;;;;;;;7.43;3.30;;;13.50;99.90;;;;;;5113899;28;20448;-65
2022/10/24 01:15:34;;;;;;;4.43;3.10;;;13.50;99.90;;;;;;5116933;28;20854;-64
2022/10/24 01:18:08;;;;;;;4.23;2.63;;;13.40;99.90;;;;;;5116646;28;20432;-64
2022/10/24 01:21:07;;;;;;;4.43;3.10;;;13.40;99.90;;;;;;5117012;28;20434;-64
2022/10/24 01:23:59;;;;;;;2.83;2.63;;;13.40;99.90;;;;;;5116910;28;20799;-64
2022/10/24 01:26:53;;;;;;;4.60;2.67;;;13.40;99.90;;;;;;5116846;28;20572;-64
2022/10/24 01:29:31;;;;;;;3.97;3.10;;;13.40;99.90;;;;;;5117094;28;20425;-65
2022/10/24 01:32:03;;;;;;;4.37;3.00;;;13.40;99.90;;;;;;5116527;28;20920;-65
2022/10/24 01:34:38;;;;;;;3.60;3.10;;;13.40;99.90;;;;;;5116720;28;20432;-65
2022/10/24 01:37:07;;;;;;;4.90;3.07;;;13.40;99.90;;;;;;5115666;28;20495;-65
2022/10/24 01:39:40;;;;;;;4.40;3.90;;;13.40;99.90;;;;;;5116522;28;20446;-65
2022/10/24 01:42:08;;;;;;;7.33;3.33;;;13.50;99.90;;;;;;5116710;28;20428;-64
2022/10/24 01:44:41;;;;;;;4.20;2.80;;;13.50;99.90;;;;;;5116352;28;20442;-64
2022/10/24 01:47:12;;;;;;;3.70;3.33;;;13.50;99.90;;;;;;5116350;28;20418;-64
2022/10/24 01:49:41;;;;;;;4.70;3.27;;;13.60;99.90;;;;;;5116489;28;20440;-64
2022/10/24 01:52:12;;;;;;;4.83;3.60;;;13.60;99.90;;;;;;5116114;28;20441;-64
2022/10/24 01:54:41;;;;;;;5.90;3.30;;;13.50;99.90;;;;;;5116051;28;20921;-64
2022/10/24 01:57:08;;;;;;;4.73;3.43;;;13.50;99.90;;;;;;5115727;28;20850;-64
2022/10/24 01:59:45;;;;;;;6.20;3.00;;;13.50;99.90;;;;;;5116425;28;20438;-64
2022/10/24 02:02:16;;;;;;;6.23;3.43;;;13.50;99.90;;;;;;5116231;28;20425;-64
2022/10/24 02:04:46;;;;;;;10.40;3.67;;;13.50;99.90;;;;;;5116050;28;20430;-64
2022/10/24 02:07:14;;;;;;;9.63;3.73;;;13.50;99.90;;;;;;5115694;28;20933;-64
2022/10/24 02:09:43;;;;;;;3.97;3.10;;;13.40;99.90;;;;;;5116332;28;20437;-64
2022/10/24 02:12:14;;;;;;;6.53;2.90;;;13.40;99.90;;;;;;5115646;28;20441;-64
2022/10/24 02:14:46;;;;;;;5.63;2.97;;;13.40;99.90;;;;;;5115502;28;20441;-63
2022/10/24 02:17:13;;;;;;;6.87;3.70;;;13.30;99.90;;;;;;5115556;28;20472;-62
2022/10/24 02:19:40;;;;;;;4.83;3.70;;;13.30;99.90;;;;;;5115600;28;20525;-64
2022/10/24 02:22:16;;;;;;;3.60;3.30;;;13.30;99.90;;;;;;5115686;28;20442;-64
2022/10/24 02:24:48;;;;;;;7.03;3.27;;;13.30;99.90;;;;;;5115686;28;20425;-64
2022/10/24 02:27:18;;;;;;;3.50;2.87;;;13.30;99.90;;;;;;5115277;28;20425;-64
2022/10/24 02:29:52;;;;;;;7.17;3.63;;;13.30;99.90;;;;;;5115674;28;20456;-64
2022/10/24 02:32:28;;;;;;;4.93;3.87;;;13.30;99.90;;;;;;5115685;28;20432;-64
2022/10/24 02:34:56;;;;;;;7.93;3.70;;;13.30;99.90;;;;;;5115147;28;20437;-65
2022/10/24 02:37:24;;;;;;;3.70;3.00;;;13.30;99.90;;;;;;5115052;28;20989;-64
2022/10/24 02:39:54;;;;;;;4.33;3.50;;;13.30;99.90;;;;;;5115295;28;20444;-64
2022/10/24 02:42:22;;;;;;;7.03;3.30;;;13.30;99.90;;;;;;5115260;28;20445;-64
2022/10/24 02:44:50;;;;;;;6.00;3.47;;;13.30;99.90;;;;;;5115126;28;20446;-64
2022/10/24 02:47:20;;;;;;;5.40;3.00;;;13.30;99.90;;;;;;5115918;28;20425;-64
2022/10/24 02:49:47;;;;;;;5.30;3.20;;;13.30;99.90;;;;;;5113894;28;20556;-64
2022/10/24 02:52:14;;;;;;;7.87;3.60;;;13.30;99.90;;;;;;5114910;28;20448;-64
2022/10/24 02:54:41;;;;;;;4.73;2.73;;;13.30;99.90;;;;;;5114661;28;20456;-64
2022/10/24 02:57:08;;;;;;;10.17;3.20;;;13.30;99.90;;;;;;5114383;28;20490;-63
2022/10/24 02:59:35;;;;;;;3.40;2.63;;;13.30;99.90;;;;;;5114829;28;20448;-63
2022/10/24 03:02:03;;;;;;;4.90;3.50;;;13.30;99.90;;;;;;5114587;28;20520;-63
2022/10/24 03:04:30;;;;;;;5.27;3.87;;;13.40;99.90;;;;;;5114666;28;20464;-63
2022/10/24 03:06:56;;;;;;;6.70;2.90;;;13.40;99.90;;;;;;5114740;28;20480;-64
2022/10/24 03:09:23;;;;;;;7.43;3.30;;;13.40;99.90;;;;;;5114543;28;20454;-63
2022/10/24 03:11:50;;;;;;;4.30;3.00;;;13.50;99.90;;;;;;5114107;28;20811;-64
2022/10/24 03:14:17;;;;;;;8.50;4.03;;;13.40;99.90;;;;;;5114675;28;20454;-64
2022/10/24 03:16:43;;;;;;;4.73;4.03;;;13.50;99.90;;;;;;5114297;28;20477;-64
2022/10/24 03:19:11;;;;;;;3.80;3.10;;;13.50;99.90;;;;;;5113969;28;20445;-64
2022/10/24 03:21:39;;;;;;;6.67;3.43;;;13.50;99.90;;;;;;5113836;28;20448;-64
2022/10/24 03:24:06;;;;;;;5.37;3.20;;;13.50;99.90;;;;;;5114460;28;20786;-64
2022/10/24 03:26:32;;;;;;;5.93;3.87;;;13.60;99.90;;;;;;5113892;28;20995;-64
2022/10/24 03:28:59;;;;;;;6.77;3.70;;;13.60;99.90;;;;;;5115050;28;20445;-64
2022/10/24 03:31:26;;;;;;;4.20;3.40;;;13.60;99.90;;;;;;5115626;28;20444;-63
2022/10/24 03:33:53;;;;;;;6.03;3.70;;;13.60;99.90;;;;;;5116058;28;20445;-65
2022/10/24 03:36:21;;;;;;;4.50;3.40;;;13.60;99.90;;;;;;5115954;28;20484;-63
2022/10/24 03:38:47;;;;;;;5.70;3.50;;;13.50;99.90;;;;;;5114651;28;20445;-63
2022/10/24 03:41:14;;;;;;;6.67;3.20;;;13.60;99.90;;;;;;5113872;28;20811;-65
2022/10/24 03:43:41;;;;;;;6.13;3.60;;;13.50;99.90;;;;;;5113601;28;20434;-63
2022/10/24 03:46:08;;;;;;;4.97;3.53;;;13.50;99.90;;;;;;5113950;28;20460;-63
2022/10/24 03:48:34;;;;;;;4.73;3.63;;;13.50;99.90;;;;;;5114006;28;20437;-65
2022/10/24 03:51:01;;;;;;;7.40;5.17;;;13.50;99.90;;;;;;5113875;28;20441;-65
2022/10/24 03:53:29;;;;;;;7.00;4.03;;;13.50;99.90;;;;;;5113760;28;20442;-65
2022/10/24 03:55:56;;;;;;;9.60;3.80;;;13.50;99.90;;;;;;5113437;28;20488;-63
2022/10/24 03:58:23;;;;;;;7.03;4.87;;;13.50;99.90;;;;;;5113915;28;20441;-62
2022/10/24 04:00:50;;;;;;;9.50;4.60;;;13.40;99.90;;;;;;5113148;28;20448;-65
2022/10/24 04:03:17;;;;;;;7.70;4.43;;;13.50;99.90;;;;;;5113842;28;20441;-63
2022/10/24 04:05:44;;;;;;;6.83;3.83;;;13.40;99.90;;;;;;5113530;28;20465;-62
2022/10/24 04:10:27;;;;;;;7.17;4.50;;;13.50;99.90;;;;;;5168707;27;20615;-64
2022/10/24 04:12:54;;;;;;;8.00;4.03;;;13.50;99.90;;;;;;5152638;27;20440;-63
2022/10/24 04:15:21;;;;;;;4.77;3.73;;;13.50;99.90;;;;;;5152461;27;20974;-64
2022/10/24 04:17:48;;;;;;;6.83;4.40;;;13.50;99.90;;;;;;5152451;27;20929;-64
2022/10/24 04:20:18;;;;;;;7.40;3.77;;;13.40;99.90;;;;;;5152849;27;20440;-63
2022/10/24 04:22:45;;;;;;;5.73;3.80;;;13.40;99.90;;;;;;5152818;27;20438;-64
2022/10/24 04:25:12;;;;;;;5.03;4.10;;;13.40;99.90;;;;;;5152216;27;20465;-64
2022/10/24 04:27:40;;;;;;;5.87;4.67;;;13.40;99.90;;;;;;5152578;27;20432;-64
2022/10/24 04:30:08;;;;;;;7.00;4.20;;;13.40;99.90;;;;;;5152763;27;20479;-63
2022/10/24 04:32:35;;;;;;;8.80;4.67;;;13.40;99.90;;;;;;5152624;27;20467;-63
2022/10/24 04:35:02;;;;;;;7.73;4.37;;;13.40;99.90;;;;;;5152228;27;20452;-64
2022/10/24 04:37:29;;;;;;;6.30;3.73;;;13.40;99.90;;;;;;5152515;27;20906;-63
2022/10/24 04:39:55;;;;;;;7.80;4.50;;;13.50;99.90;;;;;;5152627;27;20444;-63
2022/10/24 04:42:22;;;;;;;5.90;4.93;;;13.40;99.90;;;;;;5153014;27;20451;-66
2022/10/24 04:44:51;;;;;;;7.40;4.70;;;13.40;99.90;;;;;;5152851;27;20445;-64
2022/10/24 04:47:18;;;;;;;6.07;3.70;;;13.50;99.90;;;;;;5152308;27;20431;-64
2022/10/24 04:49:45;;;;;;;10.53;4.90;;;13.50;99.90;;;;;;5152398;27;20483;-64
2022/10/24 04:52:12;;;;;;;8.40;4.10;;;13.50;99.90;;;;;;5152276;27;20444;-64
2022/10/24 04:54:39;;;;;;;8.53;4.13;;;13.40;99.90;;;;;;5152271;27;20950;-64
2022/10/24 04:57:06;;;;;;;11.20;4.33;;;13.40;99.90;;;;;;5152300;27;20466;-64
2022/10/24 04:59:32;;;;;;;7.37;4.23;;;13.40;99.90;;;;;;5152228;27;20443;-64
2022/10/24 05:02:01;;;;;;;7.33;4.67;;;13.40;99.90;;;;;;5149026;27;20481;-64
2022/10/24 05:04:27;;;;;;;11.83;5.70;;;13.40;99.90;;;;;;5132667;27;20443;-64
2022/10/24 05:06:54;;;;;;;5.93;4.00;;;13.40;99.90;;;;;;5131211;27;20473;-64
2022/10/24 05:09:21;;;;;;;6.73;4.17;;;13.40;99.90;;;;;;5146439;27;20476;-63
2022/10/24 05:11:48;;;;;;;8.37;4.53;;;13.50;99.90;;;;;;5149825;27;20955;-64
2022/10/24 05:14:14;;;;;;;7.80;5.10;;;13.50;99.90;;;;;;5146786;27;20449;-64
2022/10/24 05:16:41;;;;;;;6.07;4.63;;;13.50;99.90;;;;;;5141048;27;20567;-64
2022/10/24 05:19:09;;;;;;;6.10;4.40;;;13.50;99.90;;;;;;5142618;27;20448;-65
2022/10/24 05:21:36;;;;;;;7.43;4.20;;;13.60;99.90;;;;;;5129446;27;20451;-65
2022/10/24 05:24:03;;;;;;;5.50;3.60;;;13.60;99.90;;;;;;5129940;27;20449;-64
2022/10/24 05:26:30;;;;;;;7.67;3.67;;;13.60;99.90;;;;;;5124084;27;20920;-63
2022/10/24 05:28:56;;;;;;;6.37;4.50;;;13.70;99.90;;;;;;5130891;27;20980;-64
2022/10/24 05:31:23;;;;;;;9.33;3.60;;;13.70;99.90;;;;;;5123100;27;20456;-64
2022/10/24 05:33:50;;;;;;;8.53;5.50;;;13.70;99.90;;;;;;5121161;27;20440;-66
2022/10/24 05:36:18;;;;;;;4.33;3.63;;;13.70;99.90;;;;;;5122222;27;20543;-65
2022/10/24 05:38:45;;;;;;;8.77;4.20;;;13.70;99.90;;;;;;5124046;27;20494;-64
2022/10/24 05:41:12;;;;;;;11.40;4.17;;;13.60;99.90;;;;;;5136358;27;20444;-64
2022/10/24 05:43:39;;;;;;;6.60;4.20;;;13.70;99.90;;;;;;5136758;27;20441;-64
2022/10/24 05:46:06;;;;;;;7.50;4.00;;;13.70;99.90;;;;;;5134509;27;20465;-64
2022/10/24 05:48:32;;;;;;;8.70;3.37;;;13.70;99.90;;;;;;5136592;27;20449;-64
2022/10/24 05:50:59;;;;;;;6.67;3.63;;;13.70;99.90;;;;;;5136856;27;20451;-64
2022/10/24 05:53:27;;;;;;;5.67;3.63;;;13.70;99.90;;;;;;5116930;27;20465;-62
2022/10/24 05:55:54;;;;;;;6.23;4.23;;;13.80;99.90;;;;;;5116345;28;20463;-63
2022/10/24 05:58:21;;;;;;;8.63;4.50;;;13.70;99.90;;;;;;5116191;28;20445;-64
2022/10/24 06:00:49;;;;;;;5.73;4.00;;;13.70;99.90;;;;;;5116308;28;20949;-64
2022/10/24 06:03:16;;;;;;;6.80;4.70;;;13.70;99.90;;;;;;5115815;28;20964;-63
2022/10/24 06:05:43;;;;;;;10.67;4.93;;;13.70;99.90;;;;;;5117033;28;20470;-64
2022/10/24 06:08:10;;;;;;;12.00;4.07;;;13.70;99.90;;;;;;5115775;28;20449;-63
2022/10/24 06:10:38;;;;;;;9.10;4.47;;;13.70;99.90;;;;;;5116152;28;20465;-63
2022/10/24 06:13:05;;;;;;;9.30;4.20;;;13.80;99.90;;;;;;5116239;28;20441;-64
2022/10/24 06:15:32;;;;;;;10.70;4.60;;;13.80;99.90;;;;;;5122217;27;20949;-64
2022/10/24 06:18:00;;;;;;;6.97;4.23;;;13.80;99.90;;;;;;5125340;27;20440;-63
2022/10/24 06:20:26;;;;;;;11.33;3.70;;;13.80;99.90;;;;;;5125900;27;20446;-61
2022/10/24 06:22:53;;;;;;;5.97;3.57;;;13.90;99.90;;;;;;5133415;27;20468;-62
2022/10/24 06:25:21;;;;;;;12.43;4.00;;;13.90;99.90;;;;;;5135691;27;20833;-64
2022/10/24 06:27:49;;;;;;;6.13;3.43;;;14.00;99.90;;;;;;5136431;27;20451;-64
2022/10/24 06:30:16;;;;;;;6.73;4.20;;;14.00;99.90;;;;;;5136250;27;20472;-63
2022/10/24 06:32:42;;;;;;;11.73;4.33;;;14.10;99.90;;;;;;5138842;22;20525;-62
2022/10/24 06:35:12;;;;;;;5.40;3.83;;;14.10;99.90;;;;;;5112419;28;20438;-62
2022/10/24 06:37:38;;;;;;;7.40;4.03;;;14.10;99.90;;;;;;5114804;28;20477;-62
2022/10/24 06:40:06;;;;;;;6.63;3.67;;;14.20;99.90;;;;;;5114721;28;20964;-63
2022/10/24 06:42:33;;;;;;;8.60;5.10;;;14.20;99.90;;;;;;5116386;28;20813;-63
2022/10/24 06:45:01;;;;;;;9.73;4.33;;;14.30;99.90;;;;;;5116455;28;20827;-62
2022/10/24 06:47:28;;;;;;;6.33;3.80;;;14.30;99.90;;;;;;5116017;28;20468;-62
2022/10/24 06:49:55;;;;;;;10.20;4.00;;;14.30;99.90;;;;;;5115172;28;20859;-62
2022/10/24 06:52:21;;;;;;;9.67;4.47;;;14.40;99.90;;;;;;5118833;28;20465;-61
2022/10/24 06:54:49;;;;;;;8.33;4.20;;;14.40;99.90;;;;;;5121123;28;20446;-61
2022/10/24 06:57:16;;;;;;;8.30;4.57;;;14.50;99.90;;;;;;5123336;28;20467;-61
2022/10/24 06:59:43;;;;;;;7.40;3.47;;;14.50;99.90;;;;;;5119130;28;20548;-62
2022/10/24 07:02:13;;;;;;;8.13;3.97;;;14.50;99.90;;;;;;5119585;28;20465;-63
2022/10/24 07:04:40;;;;;;;6.10;3.30;;;14.60;99.90;;;;;;5120475;28;20807;-62
2022/10/24 07:07:06;;;;;;;6.30;3.83;;;14.60;99.90;;;;;;5114406;28;20952;-63
2022/10/24 07:09:33;;;;;;;7.30;4.03;;;14.70;99.90;;;;;;5113980;28;21002;-63
2022/10/24 07:12:00;;;;;;;8.10;3.70;;;14.70;99.90;;;;;;5114220;28;20468;-63
2022/10/24 07:14:27;;;;;;;7.67;4.00;;;14.70;99.90;;;;;;5114170;28;20437;-63
2022/10/24 07:16:53;;;;;;;4.27;2.90;;;14.80;99.90;;;;;;5113560;28;20446;-63
2022/10/24 07:19:22;;;;;;;7.57;3.40;;;14.90;99.90;;;;;;5113363;28;20445;-61
2022/10/24 07:21:48;;;;;;;6.30;3.70;;;15.10;99.90;;;;;;5113201;28;20446;-61
2022/10/24 07:24:15;;;;;;;7.67;3.40;;;15.20;99.90;;;;;;5113195;28;20453;-62
2022/10/24 07:26:42;;;;;;;9.70;4.10;;;15.40;99.90;;;;;;5113078;28;20449;-63
2022/10/24 07:29:09;;;;;;;5.00;2.73;;;15.50;99.90;;;;;;5112989;28;20452;-61
2022/10/24 07:31:36;;;;;;;8.27;3.40;;;15.70;99.90;;;;;;5113417;28;20454;-61
2022/10/24 07:34:06;;;;;;;8.30;3.33;;;15.90;99.90;;;;;;5112506;28;20453;-62
2022/10/24 07:36:34;;;;;;;9.73;3.60;;;16.10;99.90;;;;;;5113413;28;20511;-62
2022/10/24 07:39:01;;;;;;;7.50;3.10;;;16.20;99.90;;;;;;5113048;28;20449;-62
2022/10/24 07:41:30;;;;;;;8.73;4.30;;;16.30;99.90;;;;;;5113308;28;20446;-63
2022/10/24 07:43:58;;;;;;;5.87;2.90;;;16.40;99.90;;;;;;5112929;28;20469;-63
2022/10/24 07:46:25;;;;;;;5.83;3.23;;;16.50;99.90;;;;;;5111976;28;20456;-63
2022/10/24 07:48:52;;;;;;;6.47;3.00;;;16.50;99.90;;;;;;5109321;27;20444;-66
2022/10/24 07:51:20;;;;;;;4.00;2.60;;;16.60;99.90;;;;;;5102539;27;20485;-62
2022/10/24 07:53:48;;;;;;;3.83;2.67;;;16.60;99.90;;;;;;5092882;28;20491;-62
2022/10/24 07:56:17;;;;;;;7.60;3.90;;;16.70;99.90;;;;;;5093162;28;20453;-62
2022/10/24 07:58:45;;;;;;;9.63;3.40;;;16.80;99.90;;;;;;5093281;28;20453;-62
2022/10/24 08:01:13;;;;;;;4.90;3.10;;;16.90;99.90;;;;;;5093028;28;20997;-63
2022/10/24 08:03:41;;;;;;;6.03;2.70;;;17.00;99.90;;;;;;5093330;28;20468;-62
2022/10/24 08:06:10;;;;;;;11.23;2.63;;;17.10;99.90;;;;;;5093269;28;20445;-63
2022/10/24 08:08:37;;;;;;;6.57;2.90;;;17.10;99.90;;;;;;5093201;28;20445;-62
2022/10/24 08:11:08;;;;;;;4.20;2.67;;;17.20;99.90;;;;;;5093562;28;20480;-62
2022/10/24 08:13:35;;;;;;;5.83;3.10;;;17.30;99.90;;;;;;5092952;28;20462;-61
2022/10/24 08:16:04;;;;;;;15.83;4.50;;;17.30;99.90;;;;;;5093031;28;20458;-61
2022/10/24 08:18:31;;;;;;;4.53;2.03;;;17.40;99.90;;;;;;5093485;28;20887;-62
2022/10/24 08:20:59;;;;;;;4.57;2.87;;;17.40;99.90;;;;;;5093859;28;20442;-62
2022/10/24 08:23:26;;;;;;;7.50;2.57;;;17.50;99.90;;;;;;5092714;28;20975;-62
2022/10/24 08:25:53;;;;;;;4.70;2.23;;;17.60;99.90;;;;;;5093354;28;20445;-62
2022/10/24 08:28:22;;;;;;;9.40;3.03;;;17.70;99.90;;;;;;5093009;28;20442;-62
2022/10/24 08:30:55;;;;;;;6.30;2.50;;;17.80;99.90;;;;;;5092920;28;20570;-62
2022/10/24 08:33:22;;;;;;;11.83;3.13;;;17.90;99.90;;;;;;5092754;28;20474;-61
2022/10/24 08:35:49;;;;;;;6.70;2.70;;;18.00;99.90;;;;;;5093175;28;20447;-63
2022/10/24 08:38:15;;;;;;;4.97;2.87;;;18.10;99.90;;;;;;5092527;28;20530;-62
2022/10/24 08:40:42;;;;;;;4.67;3.03;;;18.20;99.90;;;;;;5092362;28;20435;-60
2022/10/24 08:43:11;;;;;;;6.87;2.67;;;18.20;99.90;;;;;;5092195;28;20466;-61
2022/10/24 08:45:51;;;;;;;8.13;2.90;;;18.30;99.90;;;;;;5092447;28;20967;-61
2022/10/24 08:48:26;;;;;;;4.47;2.17;;;18.30;99.90;;;;;;5092870;28;20448;-63
2022/10/24 08:50:57;;;;;;;5.43;2.90;;;18.40;99.90;;;;;;5092646;28;20497;-61
2022/10/24 08:53:27;;;;;;;4.20;2.90;;;18.40;99.90;;;;;;5092661;28;20832;-61
2022/10/24 08:55:56;;;;;;;7.33;2.83;;;18.50;99.90;;;;;;5094601;28;20961;-62
2022/10/24 08:58:26;;;;;;;6.70;1.93;;;18.50;99.90;;;;;;5096306;28;20826;-60
2022/10/24 09:00:57;;;;;;;3.93;1.93;;;18.50;99.90;;;;;;5096547;28;20430;-62
2022/10/24 09:03:29;;;;;;;5.87;2.33;;;18.50;99.90;;;;;;5096491;28;20796;-61
2022/10/24 09:05:59;;;;;;;5.43;2.33;;;18.50;99.90;;;;;;5097128;28;20423;-63
2022/10/24 09:08:32;;;;;;;7.50;3.20;;;18.50;99.90;;;;;;5096634;28;20438;-62
2022/10/24 09:11:01;;;;;;;4.63;2.03;;;18.50;99.90;;;;;;5097035;28;20466;-63
2022/10/24 09:13:29;;;;;;;4.10;2.03;;;18.50;99.90;;;;;;5096801;28;20472;-61
2022/10/24 09:15:58;;;;;;;5.73;1.87;;;18.50;99.90;;;;;;5096501;28;20465;-63
2022/10/24 09:18:30;;;;;;;8.63;2.27;;;18.50;99.90;;;;;;5097656;28;20814;-63
2022/10/24 09:20:58;;;;;;;5.50;3.17;;;18.40;99.90;;;;;;5100970;28;20424;-63
2022/10/24 09:23:26;;;;;;;6.40;2.30;;;18.50;99.90;;;;;;5100102;28;20470;-63
2022/10/24 09:25:57;;;;;;;7.00;2.27;;;18.40;99.90;;;;;;5099805;28;20464;-62
2022/10/24 09:28:24;;;;;;;8.10;3.37;;;18.40;99.90;;;;;;5099898;28;20504;-63
2022/10/24 09:30:52;;;;;;;7.80;2.23;;;18.40;99.90;;;;;;5098227;28;20477;-62
2022/10/24 09:33:28;;;;;;;2.60;2.17;;;18.40;99.90;;;;;;5097278;28;20478;-63
2022/10/24 09:35:57;;;;;;;5.30;2.40;;;18.40;99.90;;;;;;5097347;28;20430;-62
2022/10/24 09:38:32;;;;;;;7.03;2.90;;;18.40;99.90;;;;;;5097362;28;20446;-64
2022/10/24 09:41:02;;;;;;;6.17;2.90;;;18.40;99.90;;;;;;5099296;28;20433;-63
2022/10/24 09:43:39;;;;;;;5.33;3.13;;;18.50;99.90;;;;;;5096723;28;20519;-63
2022/10/24 09:46:08;;;;;;;4.97;2.70;;;18.50;99.90;;;;;;5096621;28;20798;-62
2022/10/24 09:48:47;;;;;;;5.13;2.90;;;18.60;99.90;;;;;;5095837;28;20953;-64
2022/10/24 09:51:24;;;;;;;3.17;2.50;;;18.60;99.90;;;;;;5096121;28;20466;-63
2022/10/24 09:54:07;;;;;;;7.00;2.63;;;18.70;99.90;;;;;;5096065;28;20466;-63
2022/10/24 09:56:37;;;;;;;7.07;2.47;;;18.80;99.90;;;;;;5095704;28;20918;-63
2022/10/24 09:59:36;;;;;;;6.47;2.37;;;18.80;99.70;;;;;;5096174;28;20544;-63
2022/10/24 10:02:21;;;;;;;6.20;1.90;;;18.90;99.40;;;;;;5095586;28;20996;-63
2022/10/24 10:05:12;;;;;;;6.53;2.20;;;18.90;99.10;;;;;;5096220;28;20434;-62
2022/10/24 10:07:41;;;;;;;5.70;2.23;;;18.90;98.80;;;;;;5095079;28;20910;-62
2022/10/24 10:10:25;;;;;;;7.53;2.20;;;19.00;98.50;;;;;;5095274;28;20540;-64
2022/10/24 10:12:58;;;;;;;6.43;2.50;;;19.00;98.20;;;;;;5095099;28;20462;-62
2022/10/24 10:15:28;;;;;;;5.33;2.40;;;19.00;97.80;;;;;;5095448;28;20423;-62
2022/10/24 10:18:00;;;;;;;5.53;2.40;;;19.00;97.60;;;;;;5095229;28;20427;-63
2022/10/24 10:20:32;;;;;;;6.80;2.87;;;19.00;97.40;;;;;;5095419;28;20473;-62
2022/10/24 10:23:17;;;;;;;3.83;2.00;;;19.00;97.00;;;;;;5095994;28;20485;-63
2022/10/24 10:25:43;;;;;;;5.97;2.50;;;19.10;96.90;;;;;;5095885;28;20438;-63
2022/10/24 10:28:20;;;;;;;4.70;2.17;;;19.10;96.50;;;;;;5095817;28;20460;-62
2022/10/24 10:30:49;;;;;;;4.17;1.97;;;19.10;95.80;;;;;;5095849;28;20466;-62
2022/10/24 10:33:22;;;;;;;3.77;1.90;;;19.20;95.10;;;;;;5094983;28;20891;-62
2022/10/24 10:35:55;;;;;;;5.27;1.87;;;19.20;94.40;;;;;;5096699;28;20422;-63
2022/10/24 10:38:42;;;;;;;4.53;2.03;;;19.20;93.90;;;;;;5096618;28;20438;-63
2022/10/24 10:41:20;;;;;;;4.07;2.20;;;19.30;93.80;;;;;;5113170;28;20430;-62
2022/10/24 10:43:57;;;;;;;4.47;1.73;;;19.30;93.60;;;;;;5117044;28;20462;-62
2022/10/24 10:46:31;;;;;;;4.00;2.07;;;19.40;93.40;;;;;;5116395;28;20429;-61
2022/10/24 10:49:06;;;;;;;5.67;2.40;;;19.40;93.10;;;;;;5095473;28;20441;-64
2022/10/24 10:51:42;;;;;;;6.70;2.53;;;19.40;92.90;;;;;;5111528;28;20491;-63
2022/10/24 10:54:23;;;;;;;6.50;2.10;;;19.50;92.60;;;;;;5115554;28;20422;-64
2022/10/24 10:56:54;;;;;;;6.87;2.20;;;19.50;92.40;;;;;;5101247;28;20441;-62
2022/10/24 10:59:34;;;;;;;3.40;1.93;;;19.50;92.00;;;;;;5114850;28;20433;-62
2022/10/24 11:02:15;;;;;;;4.67;2.23;;;19.50;91.90;;;;;;5114445;28;20457;-62
2022/10/24 11:04:46;;;;;;;3.93;2.10;;;19.40;92.00;;;;;;5115734;28;20437;-63
2022/10/24 11:07:22;;;;;;;6.53;2.00;;;19.40;92.20;;;;;;5115495;28;20882;-62
2022/10/24 11:09:52;;;;;;;5.83;2.20;;;19.40;92.30;;;;;;5107327;27;20438;-62
2022/10/24 11:12:24;;;;;;;5.03;2.90;;;19.40;92.40;;;;;;5094525;28;20493;-62
2022/10/24 11:14:57;;;;;;;6.90;1.93;;;19.50;92.30;;;;;;5094342;28;20435;-63
2022/10/24 11:17:27;;;;;;;3.47;2.00;;;19.60;92.00;;;;;;5114097;28;20430;-62
2022/10/24 11:20:03;;;;;;;4.10;2.00;;;19.70;91.70;;;;;;5114825;28;20434;-62
2022/10/24 11:22:38;;;;;;;5.17;2.10;;;19.70;91.30;;;;;;5102948;27;20462;-63
2022/10/24 11:25:16;;;;;;;4.07;1.80;;;19.80;90.70;;;;;;5093322;28;20901;-63
2022/10/24 11:27:50;;;;;;;3.60;1.60;;;19.80;89.70;;;;;;5095842;27;20939;-62
2022/10/24 11:30:20;;;;;;;7.53;1.60;;;19.80;87.60;;;;;;5094809;28;20447;-64
2022/10/24 11:32:52;;;;;;;3.40;1.20;;;19.80;85.80;;;;;;5113656;28;20478;-63
2022/10/24 11:35:27;;;;;;;2.63;1.20;;;19.80;84.90;;;;;;5114348;28;20429;-63
2022/10/24 11:37:59;;;;;;;4.13;1.20;;;19.80;84.40;;;;;;5114530;28;20436;-63
2022/10/24 11:40:29;;;;;;;4.60;1.77;;;19.80;83.00;;;;;;5114203;28;20785;-63
2022/10/24 11:43:01;;;;;;;7.17;1.53;;;19.80;82.20;;;;;;5114242;28;20458;-62
2022/10/24 11:45:32;;;;;;;2.80;1.23;;;19.70;81.70;;;;;;5113481;28;20437;-63
2022/10/24 11:48:12;;;;;;;5.43;1.77;;;19.70;81.70;;;;;;5113052;28;20437;-62
2022/10/24 11:50:45;;;;;;;7.57;2.07;;;19.70;81.80;;;;;;5113719;28;20531;-63
2022/10/24 11:53:23;;;;;;;7.90;1.80;;;19.70;81.70;;;;;;5113085;28;20863;-63
2022/10/24 11:55:54;;;;;;;4.33;2.60;;;19.60;81.60;;;;;;5113457;28;20793;-63
2022/10/24 11:58:25;;;;;;;2.60;1.33;;;19.60;81.40;;;;;;5114797;28;20869;-62
2022/10/24 12:01:11;;;;;;;6.50;1.90;;;19.50;80.60;;;;;;5117216;28;20852;-62
2022/10/24 12:04:10;;;;;;;2.77;1.03;;;19.50;80.10;;;;;;5117354;28;20461;-63
2022/10/24 12:07:15;;;;;;;5.17;1.47;;;19.50;79.60;;;;;;5113994;28;20520;-63
2022/10/24 12:09:58;;;;;;;2.33;1.43;;;19.50;79.10;;;;;;5113979;28;20831;-62
2022/10/24 12:12:42;;;;;;;5.70;1.80;;;19.50;78.70;;;;;;5113718;28;20488;-63
2022/10/24 12:15:37;;;;;;;4.93;1.23;;;19.50;78.60;;;;;;5113379;28;20421;-63
2022/10/24 12:18:09;;;;;;;2.30;1.10;;;19.50;78.90;;;;;;5113700;28;20433;-62
2022/10/24 12:20:37;;;;;;;4.30;1.70;;;19.50;78.10;;;;;;5112787;28;20422;-63
2022/10/24 12:23:05;;;;;;;2.43;1.10;;;19.50;77.90;;;;;;5112970;28;20462;-62
2022/10/24 12:25:35;;;;;;;7.23;1.37;;;19.50;77.80;;;;;;5113181;28;20448;-63
2022/10/24 12:28:04;;;;;;;9.73;1.93;;;19.60;77.30;;;;;;5113618;28;20476;-63
2022/10/24 12:30:33;;;;;;;3.17;1.20;;;19.70;76.70;;;;;;5114201;28;20448;-63
2022/10/24 12:33:10;;;;;;;3.40;1.40;;;19.70;75.90;;;;;;5117785;28;20485;-62
2022/10/24 12:35:56;;;;;;;3.30;1.60;;;19.80;75.80;;;;;;5134290;22;20491;-63
2022/10/24 12:39:05;;;;;;;4.27;1.13;;;19.70;75.30;;;;;;5076592;28;20454;-62
2022/10/24 12:41:43;;;;;;;7.90;1.30;;;19.80;74.90;;;;;;5076705;28;20424;-62
2022/10/24 12:44:50;;;;;;;2.73;1.03;;;19.80;74.80;;;;;;5077036;28;20445;-63
2022/10/24 12:47:32;;;;;;;2.10;1.00;;;19.80;74.80;;;;;;5057539;28;20432;-64
2022/10/24 12:50:19;;;;;;;3.20;1.27;;;19.70;74.90;;;;;;5056240;28;20935;-63
2022/10/24 12:53:05;;;;;;;2.70;1.00;;;19.70;74.80;;;;;;5056565;28;20485;-63
2022/10/24 12:56:08;;;;;;;2.40;1.30;;;19.60;74.30;;;;;;5057030;28;20475;-63
2022/10/24 12:58:35;;;;;;;4.60;1.17;;;19.60;73.70;;;;;;5057538;28;20514;-61
2022/10/24 13:01:05;;;;;;;2.03;1.20;;;19.70;73.30;;;;;;5058340;28;20936;-62
2022/10/24 13:03:49;;;;;;;4.73;1.40;;;19.70;72.00;;;;;;5058602;28;20480;-62
2022/10/24 13:06:25;;;;;;;4.33;1.20;;;19.70;71.90;;;;;;5057350;28;20467;-63